Time;durP1;ratioP1;P1;durP2;ratioP2;P2;SDS_P1;SDS_P2;PMS_P1;PMS_P2;Temp;Humidity;BMP_temperature;BMP_pressure;BME280_temperature;BME280_humidity;BME280_pressure;Samples;Min_cycle;Max_cycle;Signal;HPM_P1;HPM_P2
2022/03/02 00:00:38;;;;;;;;;40.50;36.00;;;;;13.09;39.57;101938.94;5098440;27;45621;-87
2022/03/02 00:03:03;;;;;;;;;39.25;35.00;;;;;13.49;39.49;102001.84;5079614;27;47906;-87
2022/03/02 00:05:28;;;;;;;;;36.00;35.00;;;;;13.30;39.83;101978.38;5098051;27;45405;-87
2022/03/02 00:07:54;;;;;;;;;39.50;37.25;;;;;13.44;39.57;101995.78;5097750;27;45316;-87
2022/03/02 00:10:20;;;;;;;;;39.50;35.00;;;;;13.42;39.80;101995.81;5098422;27;45386;-87
2022/03/02 00:12:45;;;;;;;;;44.50;37.75;;;;;13.41;39.76;101986.00;5097724;27;46684;-87
2022/03/02 00:15:10;;;;;;;;;41.75;37.50;;;;;13.26;39.97;101963.31;5079321;27;45369;-87
2022/03/02 00:17:36;;;;;;;;;43.25;36.50;;;;;12.65;40.07;101861.09;5079741;27;45425;-87
2022/03/02 00:20:05;;;;;;;;;37.50;33.75;;;;;12.55;40.11;101838.25;5098270;27;45384;-87
2022/03/02 00:22:31;;;;;;;;;37.50;34.50;;;;;12.95;40.38;101901.09;5079423;27;47493;-87
2022/03/02 00:24:56;;;;;;;;;42.25;33.25;;;;;12.52;40.19;101849.06;5079166;27;45510;-87
2022/03/02 00:27:24;;;;;;;;;40.75;37.75;;;;;13.02;40.54;101919.53;5097739;27;45423;-87
2022/03/02 00:29:51;;;;;;;;;43.25;38.50;;;;;13.37;40.41;101970.09;5079432;27;45499;-87
2022/03/02 00:32:17;;;;;;;;;47.75;37.75;;;;;12.74;40.27;101865.25;5097465;27;45475;-87
2022/03/02 00:34:42;;;;;;;;;37.75;35.50;;;;;13.34;40.52;101979.13;5078977;27;46011;-87
2022/03/02 00:37:08;;;;;;;;;47.50;39.50;;;;;12.54;40.61;101839.19;5097302;27;45438;-87
2022/03/02 00:39:34;;;;;;;;;37.25;35.25;;;;;12.40;40.79;101831.63;5079455;27;45355;-87
2022/03/02 00:41:59;;;;;;;;;40.50;34.75;;;;;13.26;40.62;101984.72;5059224;28;47447;-87
2022/03/02 00:44:25;;;;;;;;;45.00;36.25;;;;;13.01;40.43;101936.50;5085284;27;45383;-87
2022/03/02 00:46:51;;;;;;;;;47.25;38.00;;;;;12.74;40.70;101892.88;5078941;27;45423;-87
2022/03/02 00:49:16;;;;;;;;;47.75;39.75;;;;;12.29;40.78;101815.06;5079374;27;45337;-87
2022/03/02 00:51:42;;;;;;;;;45.00;38.25;;;;;12.93;40.78;101927.03;5054360;27;45376;-87
2022/03/02 00:54:09;;;;;;;;;43.00;35.75;;;;;12.98;41.10;101941.13;5097264;27;45580;-87
2022/03/02 00:56:34;;;;;;;;;41.50;36.75;;;;;13.06;40.92;101952.41;5097391;27;45427;-87
2022/03/02 00:58:59;;;;;;;;;42.50;35.75;;;;;12.65;40.75;101887.84;5079172;27;45633;-87
2022/03/02 01:01:25;;;;;;;;;42.50;38.25;;;;;13.09;40.78;101963.91;5097211;27;46160;-87
2022/03/02 01:03:50;;;;;;;;;45.75;38.25;;;;;12.74;41.21;101911.59;5097145;27;45423;-87
2022/03/02 01:06:16;;;;;;;;;36.25;33.00;;;;;13.10;41.15;101968.31;5097369;27;45320;-87
2022/03/02 01:08:41;;;;;;;;;38.50;35.75;;;;;12.50;41.31;101877.63;5099642;27;45458;-87
2022/03/02 01:11:07;;;;;;;;;42.50;37.25;;;;;12.86;41.09;101939.75;5100587;27;46298;-87
2022/03/02 01:13:33;;;;;;;;;43.00;36.00;;;;;12.86;41.38;101943.28;5100568;27;45567;-87
2022/03/02 01:15:59;;;;;;;;;43.50;38.25;;;;;12.98;41.49;101974.09;5099484;27;45396;-87
2022/03/02 01:18:24;;;;;;;;;48.25;41.00;;;;;12.33;41.73;101862.16;5101041;27;45383;-87
2022/03/02 01:20:50;;;;;;;;;41.50;35.00;;;;;12.62;41.60;101920.91;5100362;27;46169;-87
2022/03/02 01:23:15;;;;;;;;;43.00;37.00;;;;;12.79;41.49;101946.22;5100407;27;45440;-88
2022/03/02 01:25:40;;;;;;;;;47.75;40.00;;;;;12.34;41.58;101874.59;5100504;27;45340;-87
2022/03/02 01:28:06;;;;;;;;;43.50;37.25;;;;;12.03;41.21;101820.38;5082326;27;45532;-87
2022/03/02 01:30:31;;;;;;;;;38.50;34.00;;;;;12.10;41.48;101825.50;5100205;27;45401;-87
2022/03/02 01:32:56;;;;;;;;;42.50;35.75;;;;;12.76;41.41;101948.97;5081849;27;45376;-87
2022/03/02 01:35:22;;;;;;;;;44.50;36.50;;;;;12.22;41.64;101860.72;5078264;27;45536;-87
2022/03/02 01:37:50;;;;;;;;;44.75;37.50;;;;;12.58;41.41;101923.75;5061540;27;45263;-87
2022/03/02 01:40:16;;;;;;;;;49.25;39.25;;;;;12.72;41.53;101942.00;5102058;27;45431;-87
2022/03/02 01:42:42;;;;;;;;;45.75;37.00;;;;;12.81;41.65;101945.25;5120685;27;45457;-87
2022/03/02 01:45:09;;;;;;;;;43.25;34.50;;;;;12.72;41.75;101928.63;5120822;27;45405;-87
2022/03/02 01:47:35;;;;;;;;;44.75;38.25;;;;;12.33;41.99;101864.84;5120806;27;45490;-87
2022/03/02 01:50:01;;;;;;;;;48.00;38.50;;;;;11.93;41.88;101789.50;5119303;27;47542;-87
2022/03/02 01:52:27;;;;;;;;;45.25;35.50;;;;;12.02;41.78;101815.94;5120311;27;45430;-87
2022/03/02 01:54:52;;;;;;;;;48.00;38.25;;;;;12.76;41.76;101940.97;5120760;27;45360;-87
2022/03/02 01:57:18;;;;;;;;;43.50;36.00;;;;;12.21;41.53;101840.25;5120933;27;45638;-87
2022/03/02 01:59:43;;;;;;;;;45.50;37.00;;;;;12.74;42.00;101945.50;5120192;27;45550;-87
2022/03/02 02:02:09;;;;;;;;;48.75;37.50;;;;;11.86;41.79;101782.59;5120399;27;45387;-87
2022/03/02 02:04:35;;;;;;;;;44.50;36.25;;;;;12.60;42.34;101919.22;5120455;27;45391;-87
2022/03/02 02:07:00;;;;;;;;;47.25;37.50;;;;;12.06;41.88;101826.50;5102387;27;45420;-87
2022/03/02 02:09:25;;;;;;;;;52.50;39.00;;;;;12.37;41.85;101874.50;5120393;27;45449;-87
2022/03/02 02:11:51;;;;;;;;;46.00;36.75;;;;;12.08;42.00;101819.31;5120153;27;45422;-87
2022/03/02 02:14:16;;;;;;;;;45.25;38.25;;;;;12.69;41.94;101910.88;5101688;27;45404;-87
2022/03/02 02:16:42;;;;;;;;;45.00;35.50;;;;;12.15;41.74;101831.56;5120557;27;45410;-87
2022/03/02 02:19:07;;;;;;;;;47.00;35.25;;;;;12.64;41.82;101913.72;5119764;27;46051;-87
2022/03/02 02:21:33;;;;;;;;;45.25;35.75;;;;;12.19;41.88;101836.75;5120017;27;46052;-87
2022/03/02 02:23:59;;;;;;;;;44.75;36.00;;;;;11.81;41.94;101772.06;5120312;27;45350;-87
2022/03/02 02:26:25;;;;;;;;;45.00;37.50;;;;;12.24;41.78;101850.88;5120196;27;45598;-87
2022/03/02 02:28:51;;;;;;;;;46.00;36.75;;;;;12.03;41.92;101806.13;5118447;27;46246;-87
2022/03/02 02:31:17;;;;;;;;;40.75;34.50;;;;;11.84;41.83;101760.41;5101401;27;46093;-87
2022/03/02 02:33:43;;;;;;;;;44.25;37.25;;;;;11.94;41.63;101788.59;5101314;27;45518;-87
2022/03/02 02:36:08;;;;;;;;;39.25;34.50;;;;;11.98;41.71;101798.25;5074141;27;45537;-87
2022/03/02 02:38:34;;;;;;;;;43.75;35.25;;;;;11.78;42.10;101764.16;5015141;27;46372;-87
2022/03/02 02:40:59;;;;;;;;;40.50;35.25;;;;;11.82;42.03;101771.16;5015121;28;45373;-87
2022/03/02 02:43:25;;;;;;;;;40.50;35.75;;;;;12.50;42.02;101891.00;5083753;27;45730;-87
2022/03/02 02:45:52;;;;;;;;;42.50;36.25;;;;;12.53;41.95;101883.78;5015532;27;45425;-87
2022/03/02 02:48:18;;;;;;;;;41.25;34.25;;;;;12.22;42.01;101825.97;5083087;27;47346;-87
2022/03/02 02:50:44;;;;;;;;;42.25;33.00;;;;;11.92;41.71;101773.56;5014983;28;45494;-87
2022/03/02 02:53:11;;;;;;;;;38.00;31.50;;;;;11.54;41.95;101698.16;5083390;27;45452;-87
2022/03/02 02:55:38;;;;;;;;;41.00;34.00;;;;;12.48;41.83;101858.09;5083619;27;45373;-87
2022/03/02 02:58:04;;;;;;;;;39.00;34.00;;;;;12.45;41.91;101853.72;5015163;28;45510;-87
2022/03/02 03:00:32;;;;;;;;;41.75;34.25;;;;;12.08;42.03;101793.50;5082918;27;45338;-87
2022/03/02 03:02:58;;;;;;;;;41.75;34.75;;;;;12.36;42.06;101860.28;5015271;28;45376;-87
2022/03/02 03:05:28;;;;;;;;;37.50;34.50;;;;;12.34;41.94;101854.09;5015356;28;45234;-87
2022/03/02 03:07:54;;;;;;;;;45.25;33.75;;;;;12.32;42.11;101847.06;5083035;27;47275;-87
2022/03/02 03:10:19;;;;;;;;;40.00;34.25;;;;;11.80;42.21;101761.44;5014750;28;45524;-87
2022/03/02 03:12:46;;;;;;;;;39.75;33.00;;;;;11.95;42.17;101790.34;5083183;27;45475;-87
2022/03/02 03:15:13;;;;;;;;;38.50;34.00;;;;;11.68;41.95;101743.97;5015136;28;45452;-87
2022/03/02 03:17:39;;;;;;;;;41.25;33.75;;;;;11.31;42.29;101699.78;5014503;28;46262;-87
2022/03/02 03:20:07;;;;;;;;;39.50;35.00;;;;;11.74;42.04;101758.97;5014818;27;45337;-87
2022/03/02 03:22:33;;;;;;;;;39.00;30.75;;;;;12.00;41.98;101808.91;5082553;27;45373;-87
2022/03/02 03:24:58;;;;;;;;;42.50;33.75;;;;;11.60;42.21;101759.41;5015165;27;45397;-86
2022/03/02 03:27:25;;;;;;;;;43.75;34.00;;;;;11.64;42.18;101768.19;5014767;28;45547;-87
2022/03/02 03:29:50;;;;;;;;;36.00;31.75;;;;;11.49;42.29;101735.69;5083251;27;45453;-87
2022/03/02 03:32:16;;;;;;;;;40.25;33.25;;;;;11.95;41.81;101816.19;5013426;28;45505;-87
2022/03/02 03:34:41;;;;;;;;;47.25;36.75;;;;;11.99;42.01;101825.88;5014918;28;45435;-87
2022/03/02 03:37:07;;;;;;;;;36.50;30.50;;;;;11.89;42.20;101806.56;5014338;27;46128;-87
2022/03/02 03:39:32;;;;;;;;;49.00;36.25;;;;;11.35;42.12;101717.44;5014670;28;45486;-86
2022/03/02 03:41:57;;;;;;;;;25.25;20.25;;;;;11.24;42.25;101700.91;5014686;28;45460;-87
2022/03/02 03:44:23;;;;;;;;;36.25;30.25;;;;;11.88;41.99;101818.19;4997265;28;45384;-87
2022/03/02 03:46:49;;;;;;;;;33.75;31.50;;;;;11.39;42.28;101734.25;4996762;28;47306;-87
2022/03/02 03:49:14;;;;;;;;;42.25;34.00;;;;;11.57;42.25;101762.16;5014394;28;45374;-87
2022/03/02 03:51:40;;;;;;;;;41.50;35.00;;;;;11.66;41.98;101775.25;5014234;28;45302;-86
2022/03/02 03:54:06;;;;;;;;;35.75;32.00;;;;;11.32;42.17;101725.56;4997128;28;45548;-87
2022/03/02 03:56:32;;;;;;;;;41.50;32.50;;;;;11.26;42.34;101700.84;4996158;28;48021;-87
2022/03/02 03:58:59;;;;;;;;;41.75;33.25;;;;;11.31;42.54;101720.28;5014418;28;45321;-87
2022/03/02 04:01:25;;;;;;;;;29.75;29.00;;;;;11.34;42.77;101725.50;5014700;28;45487;-87
2022/03/02 04:03:50;;;;;;;;;39.50;34.25;;;;;11.79;42.83;101795.25;4996498;28;45438;-87
2022/03/02 04:06:16;;;;;;;;;40.50;34.50;;;;;11.40;42.74;101734.22;5014294;28;45557;-87
2022/03/02 04:08:41;;;;;;;;;39.75;33.75;;;;;11.29;42.87;101728.31;5014071;28;45473;-87
2022/03/02 04:11:07;;;;;;;;;39.50;33.50;;;;;11.25;42.86;101712.44;5014433;28;45431;-87
2022/03/02 04:13:32;;;;;;;;;39.50;33.50;;;;;11.44;42.60;101755.47;5014275;28;45581;-87
2022/03/02 04:15:58;;;;;;;;;37.50;33.25;;;;;11.28;43.07;101737.22;4996294;28;47191;-87
2022/03/02 04:18:23;;;;;;;;;47.50;36.50;;;;;11.21;43.23;101717.00;5014050;28;45343;-86
2022/03/02 04:20:49;;;;;;;;;43.75;35.75;;;;;10.95;42.93;101670.63;4996311;28;45598;-87
2022/03/02 04:23:15;;;;;;;;;45.50;35.00;;;;;11.16;42.88;101708.25;5014447;28;45297;-87
2022/03/02 04:25:40;;;;;;;;;41.00;35.50;;;;;11.41;42.82;101751.09;4995916;28;47383;-87
2022/03/02 04:28:06;;;;;;;;;42.00;34.50;;;;;11.47;42.97;101760.69;5014067;28;45424;-87
2022/03/02 04:30:32;;;;;;;;;39.75;35.00;;;;;11.08;42.71;101672.97;5013912;28;45416;-87
2022/03/02 04:33:00;;;;;;;;;37.25;32.50;;;;;11.23;42.71;101699.16;4996485;28;45563;-87
2022/03/02 04:35:26;;;;;;;;;33.50;28.75;;;;;11.28;42.77;101701.69;5013879;27;45737;-87
2022/03/02 04:37:51;;;;;;;;;40.25;34.50;;;;;11.23;42.44;101714.28;5012342;28;45747;-87
2022/03/02 04:40:17;;;;;;;;;33.75;30.75;;;;;10.90;42.33;101653.91;5013892;27;45496;-87
2022/03/02 04:42:43;;;;;;;;;36.25;32.50;;;;;11.76;42.41;101797.19;4996557;28;45527;-87
2022/03/02 04:45:10;;;;;;;;;41.50;33.75;;;;;11.04;42.24;101684.63;5016772;28;46075;-87
2022/03/02 04:47:35;;;;;;;;;40.00;35.00;;;;;10.86;42.35;101644.25;5016629;28;45357;-87
2022/03/02 04:50:01;;;;;;;;;38.25;34.50;;;;;11.14;42.42;101699.44;4998920;28;45337;-87
2022/03/02 04:52:26;;;;;;;;;38.25;33.75;;;;;11.20;42.44;101713.47;4999333;28;45467;-87
2022/03/02 04:55:07;;;;;;;;;43.25;35.25;;;;;11.40;42.24;101741.31;5016514;28;46380;-87
2022/03/02 04:57:39;;;;;;;;;40.00;33.00;;;;;11.71;42.56;101797.31;5016709;28;45397;-87
2022/03/02 05:00:10;;;;;;;;;42.75;34.50;;;;;11.32;42.39;101722.88;5016862;28;45393;-87
2022/03/02 05:02:36;;;;;;;;;44.25;33.00;;;;;11.64;42.74;101776.22;5017275;28;45510;-87
2022/03/02 05:05:02;;;;;;;;;41.75;35.00;;;;;11.02;42.88;101683.81;5016440;28;46574;-86
2022/03/02 05:07:27;;;;;;;;;43.00;36.00;;;;;11.00;42.63;101678.50;5016843;28;45502;-86
2022/03/02 05:09:53;;;;;;;;;42.25;34.25;;;;;11.44;42.95;101742.09;5016636;28;45408;-87
2022/03/02 05:12:18;;;;;;;;;42.75;35.50;;;;;11.01;43.20;101666.94;5017027;28;45389;-87
2022/03/02 05:14:43;;;;;;;;;43.25;35.00;;;;;11.37;42.64;101728.94;5016292;28;46246;-87
2022/03/02 05:17:09;;;;;;;;;38.50;35.00;;;;;11.57;43.06;101773.72;5016406;28;45500;-87
2022/03/02 05:19:34;;;;;;;;;43.50;35.50;;;;;11.35;42.84;101737.91;5016406;28;45456;-87
2022/03/02 05:22:00;;;;;;;;;44.00;35.25;;;;;11.65;42.81;101772.59;5016839;28;45339;-86
2022/03/02 05:24:25;;;;;;;;;42.75;35.50;;;;;10.84;42.87;101640.78;5016348;28;45525;-87
2022/03/02 05:26:50;;;;;;;;;42.25;36.00;;;;;10.89;43.04;101637.97;4998142;28;45456;-87
2022/03/02 05:29:16;;;;;;;;;41.75;35.00;;;;;11.08;42.95;101676.50;4998718;28;45480;-87
2022/03/02 05:31:41;;;;;;;;;40.25;34.75;;;;;11.33;42.96;101710.41;4998715;28;45719;-87
2022/03/02 05:34:07;;;;;;;;;42.75;34.75;;;;;11.65;42.90;101769.94;5016351;27;46370;-87
2022/03/02 05:36:32;;;;;;;;;39.75;33.75;;;;;11.25;42.75;101699.09;4998194;28;45686;-87
2022/03/02 05:38:58;;;;;;;;;38.75;33.50;;;;;11.55;43.05;101751.53;5016195;28;45447;-87
2022/03/02 05:41:23;;;;;;;;;42.75;34.50;;;;;11.14;42.91;101680.75;5076957;27;45415;-87
2022/03/02 05:43:49;;;;;;;;;38.75;34.00;;;;;11.01;43.00;101658.94;5120520;27;46375;-87
2022/03/02 05:46:15;;;;;;;;;40.75;34.25;;;;;10.92;42.67;101656.53;5120930;27;45372;-87
2022/03/02 05:48:40;;;;;;;;;40.50;35.75;;;;;10.72;43.09;101619.78;5120421;27;45368;-87
2022/03/02 05:51:06;;;;;;;;;43.25;34.25;;;;;11.18;42.76;101695.75;5120975;27;45312;-87
2022/03/02 05:53:31;;;;;;;;;43.25;35.00;;;;;10.87;43.10;101639.81;5120423;27;45409;-86
2022/03/02 05:55:57;;;;;;;;;34.50;31.75;;;;;10.69;42.63;101614.56;5119433;27;45428;-86
2022/03/02 05:58:22;;;;;;;;;39.50;33.25;;;;;11.25;43.30;101707.13;5120734;27;45312;-87
2022/03/02 06:00:48;;;;;;;;;44.25;35.25;;;;;11.56;42.85;101752.41;5120724;27;45370;-87
2022/03/02 06:03:13;;;;;;;;;46.00;35.50;;;;;10.98;42.65;101661.69;5120367;27;46536;-87
2022/03/02 06:05:39;;;;;;;;;37.50;30.50;;;;;11.53;42.69;101753.38;5119248;27;45778;-87
2022/03/02 06:08:07;;;;;;;;;40.25;34.50;;;;;11.01;42.55;101682.94;5120490;27;45383;-86
2022/03/02 06:10:33;;;;;;;;;39.00;34.25;;;;;11.37;42.74;101747.63;5120455;27;45370;-87
2022/03/02 06:12:59;;;;;;;;;42.00;35.00;;;;;10.92;42.74;101678.75;5119906;27;46128;-86
2022/03/02 06:15:25;;;;;;;;;45.75;35.00;;;;;10.95;43.07;101675.97;5120279;27;45467;-87
2022/03/02 06:17:50;;;;;;;;;38.50;32.00;;;;;10.75;43.26;101635.72;5101574;27;45441;-87
2022/03/02 06:20:16;;;;;;;;;40.75;35.50;;;;;10.94;42.96;101670.72;5101886;27;45381;-86
2022/03/02 06:22:42;;;;;;;;;42.75;34.00;;;;;11.22;42.72;101715.22;5119876;27;45473;-86
2022/03/02 06:25:08;;;;;;;;;42.50;35.25;;;;;11.46;42.91;101754.50;5120129;27;45455;-87
2022/03/02 06:27:34;;;;;;;;;45.75;36.25;;;;;10.69;43.31;101633.22;5120148;27;45506;-87
2022/03/02 06:29:59;;;;;;;;;42.75;35.75;;;;;11.47;43.27;101753.59;5120340;27;45470;-86
2022/03/02 06:32:25;;;;;;;;;42.25;35.00;;;;;11.50;43.04;101755.28;5118501;27;48233;-87
2022/03/02 06:34:50;;;;;;;;;40.50;33.00;;;;;11.08;43.23;101694.31;5099682;27;45894;-87
2022/03/02 06:37:17;;;;;;;;;37.25;32.50;;;;;10.48;42.94;101592.97;5078176;28;45459;-87
2022/03/02 06:39:42;;;;;;;;;44.25;35.00;;;;;11.01;42.96;101687.41;5099785;27;45448;-86
2022/03/02 06:42:16;;;;;;;;;41.75;35.75;;;;;11.45;42.76;101759.84;5095187;27;48128;-87
2022/03/02 06:44:55;;;;;;;;;44.50;35.75;;;;;11.48;43.09;101759.78;5097697;27;45412;-87
2022/03/02 06:47:27;;;;;;;;;40.00;34.75;;;;;10.53;42.49;101612.34;5099195;27;45381;-87
2022/03/02 06:50:07;;;;;;;;;39.50;33.75;;;;;11.46;43.01;101758.97;5097822;27;45373;-87
2022/03/02 06:52:42;;;;;;;;;40.25;35.50;;;;;11.46;42.93;101765.16;5098706;27;46190;-87
2022/03/02 06:55:13;;;;;;;;;39.25;33.00;;;;;10.97;42.52;101679.47;5098842;27;45417;-87
2022/03/02 06:57:40;;;;;;;;;41.25;35.75;;;;;11.50;42.70;101766.81;5097572;27;45477;-87
2022/03/02 07:00:18;;;;;;;;;33.25;30.00;;;;;11.02;42.83;101679.34;5091835;27;45555;-88
2022/03/02 07:03:06;;;;;;;;;42.75;33.00;;;;;11.30;42.53;101727.38;5062083;28;48142;-86
2022/03/02 07:05:33;;;;;;;;;45.25;35.50;;;;;11.37;42.97;101734.28;5089330;27;45464;-86
2022/03/02 07:08:00;;;;;;;;;45.25;36.75;;;;;10.75;43.18;101633.94;5091414;27;45302;-86
2022/03/02 07:10:26;;;;;;;;;40.00;34.75;;;;;11.14;42.91;101692.31;5097358;27;45409;-87
2022/03/02 07:12:52;;;;;;;;;38.00;33.00;;;;;10.95;43.07;101656.44;5096689;27;46371;-89
2022/03/02 07:15:18;;;;;;;;;84.75;74.50;;;;;10.63;43.00;101607.63;5094891;27;45535;-85
2022/03/02 07:17:43;;;;;;;;;38.00;32.50;;;;;10.22;42.73;101535.06;5088094;27;45451;-86
2022/03/02 07:20:11;;;;;;;;;40.75;36.00;;;;;11.40;42.84;101730.63;5097350;27;45637;-87
2022/03/02 07:22:43;;;;;;;;;40.25;31.50;;;;;11.32;42.56;101714.88;5096765;27;46452;-86
2022/03/02 07:25:29;;;;;;;;;44.00;34.75;;;;;11.21;42.79;101695.66;5098528;27;45447;-87
2022/03/02 07:27:57;;;;;;;;;44.00;36.25;;;;;11.72;42.83;101775.03;5098446;27;45453;-86
2022/03/02 07:30:24;;;;;;;;;43.25;35.75;;;;;11.75;42.33;101776.72;5097060;27;45456;-87
2022/03/02 07:32:54;;;;;;;;;40.25;34.25;;;;;11.52;42.41;101740.97;5096407;27;45532;-87
2022/03/02 07:35:19;;;;;;;;;38.25;33.25;;;;;10.98;42.52;101635.03;5094619;27;45432;-85
2022/03/02 07:37:46;;;;;;;;;40.75;35.75;;;;;10.88;42.26;101613.06;5091929;27;45682;-85
2022/03/02 07:40:13;;;;;;;;;41.75;33.25;;;;;11.28;42.27;101675.84;5085852;27;45540;-86
2022/03/02 07:42:39;;;;;;;;;40.75;35.00;;;;;11.69;42.01;101750.22;4996351;28;47226;-86
2022/03/02 07:45:05;;;;;;;;;40.75;35.00;;;;;11.22;42.00;101662.72;4997902;28;45443;-85
2022/03/02 07:47:31;;;;;;;;;45.00;35.00;;;;;11.74;41.78;101740.25;4992750;28;45382;-86
2022/03/02 07:49:56;;;;;;;;;39.50;33.50;;;;;11.23;41.37;101655.59;5047379;28;45351;-87
2022/03/02 07:52:25;;;;;;;;;38.50;34.00;;;;;10.87;41.60;101589.13;5002481;28;47413;-86
2022/03/02 07:54:54;;;;;;;;;36.00;32.25;;;;;10.91;41.76;101585.44;5005545;28;45444;-87
2022/03/02 07:57:21;;;;;;;;;42.25;34.50;;;;;10.69;41.62;101529.25;4994664;28;45496;-86
2022/03/02 07:59:47;;;;;;;;;38.00;33.25;;;;;11.35;41.31;101645.38;5008607;28;45270;-86
2022/03/02 08:02:13;;;;;;;;;44.50;34.50;;;;;11.78;40.97;101708.06;4993947;28;45523;-87
2022/03/02 08:04:41;;;;;;;;;42.25;34.75;;;;;11.51;41.23;101651.09;5003464;28;45507;-86
2022/03/02 08:07:06;;;;;;;;;45.00;35.00;;;;;11.87;41.16;101709.59;4997570;28;45432;-87
2022/03/02 08:09:34;;;;;;;;;42.00;35.00;;;;;11.95;41.00;101726.22;5007631;28;45329;-88
2022/03/02 08:12:01;;;;;;;;;40.50;34.00;;;;;12.36;42.68;101760.47;4986734;28;46202;-85
2022/03/02 08:14:27;;;;;;;;;45.75;36.75;;;;;11.80;41.94;101639.44;4979983;28;45396;-85
2022/03/02 08:16:53;;;;;;;;;44.75;36.50;;;;;12.53;41.85;101743.84;4980697;28;45459;-86
2022/03/02 08:19:19;;;;;;;;;44.00;35.00;;;;;12.61;42.23;101737.28;4980251;28;45647;-85
2022/03/02 08:21:50;;;;;;;;;37.50;34.25;;;;;12.24;40.46;101661.09;4982330;28;45507;-85
2022/03/02 08:24:17;;;;;;;;;38.00;35.25;;;;;12.37;40.19;101664.19;4992807;28;45362;-85
2022/03/02 08:26:48;;;;;;;;;41.75;33.75;;;;;13.09;42.18;101760.47;4979554;28;45533;-85
2022/03/02 08:29:14;;;;;;;;;44.00;38.25;;;;;12.66;40.40;101668.44;4981040;28;45524;-85
2022/03/02 08:31:41;;;;;;;;;40.25;36.25;;;;;13.03;39.68;101701.81;5003870;28;45923;-85
2022/03/02 08:34:07;;;;;;;;;48.00;37.50;;;;;13.43;39.23;101751.16;4998633;28;45480;-85
2022/03/02 08:36:34;;;;;;;;;39.25;33.50;;;;;13.38;41.10;101734.41;4998252;28;45481;-86
2022/03/02 08:39:06;;;;;;;;;42.00;35.75;;;;;13.56;40.14;101753.38;4999108;28;45788;-85
2022/03/02 08:41:32;;;;;;;;;45.25;36.25;;;;;13.57;39.20;101749.75;5049862;27;45322;-84
2022/03/02 08:43:58;;;;;;;;;48.75;39.75;;;;;12.83;40.06;101664.25;5079015;27;45452;-85
2022/03/02 08:46:25;;;;;;;;;52.25;39.25;;;;;13.19;40.24;101695.88;5084405;27;45477;-85
2022/03/02 08:48:51;;;;;;;;;39.50;36.50;;;;;13.52;38.52;101742.75;5093565;27;45485;-86
2022/03/02 08:51:21;;;;;;;;;44.25;36.75;;;;;13.60;38.87;101758.56;5036250;27;45541;-85
2022/03/02 08:53:48;;;;;;;;;44.50;37.75;;;;;13.22;38.63;101687.72;5040612;27;45543;-86
2022/03/02 08:56:15;;;;;;;;;41.75;34.25;;;;;13.76;39.17;101757.91;5050554;27;45596;-85
2022/03/02 08:58:41;;;;;;;;;36.50;33.00;;;;;13.35;40.39;101672.09;5090078;27;45438;-85
2022/03/02 09:01:11;;;;;;;;;42.50;36.00;;;;;13.68;38.47;101715.38;5034764;27;48209;-86
2022/03/02 09:03:38;;;;;;;;;42.00;36.50;;;;;13.36;37.82;101631.84;5078474;27;45566;-86
2022/03/02 09:06:05;;;;;;;;;37.00;35.75;;;;;14.08;38.60;101733.31;5085472;27;45488;-86
2022/03/02 09:08:33;;;;;;;;;36.25;32.75;;;;;13.99;39.13;101693.50;5091617;27;45500;-86
2022/03/02 09:10:59;;;;;;;;;41.50;37.50;;;;;13.47;39.65;101584.06;5087809;27;46024;-87
2022/03/02 09:13:25;;;;;;;;;42.25;35.00;;;;;14.28;37.59;101675.28;5072988;27;45380;-86
2022/03/02 09:15:51;;;;;;;;;38.00;30.50;;;;;14.78;38.10;101732.06;5056880;27;45369;-85
2022/03/02 09:18:17;;;;;;;;;39.00;31.75;;;;;14.77;36.49;101706.19;5054398;27;45472;-85
2022/03/02 09:20:43;;;;;;;;;38.25;30.50;;;;;14.30;36.91;101612.59;5079711;27;45391;-86
2022/03/02 09:23:09;;;;;;;;;38.50;32.50;;;;;14.43;37.82;101604.88;5039118;27;45414;-86
2022/03/02 09:25:38;;;;;;;;;31.00;30.00;;;;;14.62;35.91;101638.94;5080925;27;45447;-85
2022/03/02 09:28:04;;;;;;;;;41.25;33.50;;;;;14.56;37.39;101616.81;5089643;27;45395;-85
2022/03/02 09:30:30;;;;;;;;;29.25;25.25;;;;;14.71;37.48;101619.72;5078883;27;45422;-86
2022/03/02 09:32:59;;;;;;;;;41.00;32.25;;;;;15.44;36.15;101725.41;5058524;28;45421;-86
2022/03/02 09:35:26;;;;;;;;;38.00;29.50;;;;;15.50;36.43;101726.91;5080254;27;45340;-86
2022/03/02 09:37:54;;;;;;;;;37.25;31.75;;;;;15.60;37.35;101723.72;5084577;27;45435;-85
2022/03/02 09:40:25;;;;;;;;;38.75;34.00;;;;;15.66;36.26;101727.03;5092107;27;45676;-85
2022/03/02 09:43:15;;;;;;;;;39.50;32.50;;;;;15.50;35.13;101692.00;5007677;28;45476;-85
2022/03/02 09:45:42;;;;;;;;;38.50;33.75;;;;;15.51;35.38;101701.81;5004529;28;45475;-86
2022/03/02 09:48:15;;;;;;;;;35.75;31.75;;;;;15.12;36.51;101632.97;5008275;28;45319;-86
2022/03/02 09:50:40;;;;;;;;;38.75;32.50;;;;;15.14;36.22;101645.38;5014222;28;48018;-85
2022/03/02 09:53:14;;;;;;;;;41.50;32.50;;;;;15.58;35.90;101725.59;5006394;28;45507;-85
2022/03/02 09:55:41;;;;;;;;;37.25;32.75;;;;;15.14;34.17;101677.59;4995821;28;45433;-87
2022/03/02 09:58:06;;;;;;;;;39.25;35.50;;;;;14.89;35.47;101733.38;5002224;28;45480;-86
2022/03/02 10:00:33;;;;;;;;;38.50;32.50;;;;;14.80;35.29;101732.00;5033691;27;46064;-86
2022/03/02 10:03:01;;;;;;;;;38.75;32.75;;;;;14.45;35.57;101667.38;5003129;28;45421;-86
2022/03/02 10:05:28;;;;;;;;;34.50;32.75;;;;;14.97;36.13;101725.84;5023163;27;45520;-86
2022/03/02 10:08:02;;;;;;;;;31.00;30.75;;;;;15.05;34.92;101729.03;5010281;28;45701;-87
2022/03/02 10:10:31;;;;;;;;;40.50;33.00;;;;;14.89;35.47;101703.84;5009409;28;45436;-87
2022/03/02 10:12:59;;;;;;;;;31.50;31.25;;;;;14.43;35.88;101618.28;5006859;28;45389;-86
2022/03/02 10:15:26;;;;;;;;;39.75;33.00;;;;;14.69;35.02;101649.28;5009102;28;45480;-86
2022/03/02 10:17:53;;;;;;;;;40.50;35.75;;;;;15.06;35.28;101711.13;5016694;27;45680;-87
2022/03/02 10:20:21;;;;;;;;;35.00;33.25;;;;;15.02;35.13;101688.06;4999012;28;47489;-88
2022/03/02 10:22:46;;;;;;;;;36.25;32.50;;;;;15.30;34.69;101704.59;4992218;28;45309;-87
2022/03/02 10:25:15;;;;;;;;;41.75;33.75;;;;;14.47;35.25;101560.88;4999288;28;45420;-89
2022/03/02 10:28:04;;;;;;;;;37.50;30.50;;;;;15.39;34.82;101706.84;4996197;28;45524;-87
2022/03/02 10:30:42;;;;;;;;;42.00;33.00;;;;;14.37;35.00;101522.00;5004846;28;46058;-89
2022/03/02 10:33:22;;;;;;;;;42.25;32.75;;;;;14.54;35.25;101531.97;4995002;28;45572;-88
2022/03/02 10:36:08;;;;;;;;;39.75;35.00;;;;;14.90;34.93;101576.75;5000415;27;45539;-88
2022/03/02 10:38:49;;;;;;;;;39.00;31.25;;;;;15.81;34.85;101692.25;5005119;28;45411;-85
2022/03/02 10:41:18;;;;;;;;;40.75;34.00;;;;;16.00;34.29;101670.66;5004592;27;46170;-88
2022/03/02 10:44:01;;;;;;;;;36.00;31.75;;;;;16.40;33.91;101667.72;4980488;28;45483;-87
2022/03/02 10:46:27;;;;;;;;;41.00;35.25;;;;;16.54;32.98;101638.22;5005089;28;45574;-87
2022/03/02 10:49:04;;;;;;;;;38.00;34.50;;;;;16.86;32.64;101659.88;4995757;28;45564;-88
2022/03/02 10:51:34;;;;;;;;;37.25;32.50;;;;;16.30;32.23;101540.03;5005353;28;45613;-88
2022/03/02 10:54:07;;;;;;;;;38.67;33.00;;;;;16.19;31.93;101505.63;5005187;28;45635;-87
2022/03/02 10:56:38;;;;;;;;;44.25;36.50;;;;;16.58;32.24;101585.13;5006832;28;45370;-87
2022/03/02 10:59:06;;;;;;;;;47.25;36.50;;;;;16.01;32.17;101496.75;5005059;28;45593;-89
2022/03/02 11:01:32;;;;;;;;;39.50;32.75;;;;;16.50;32.06;101588.22;5011996;28;48083;-88
2022/03/02 11:03:58;;;;;;;;;38.25;34.50;;;;;16.55;32.32;101594.22;5007286;27;45341;-88
2022/03/02 11:06:24;;;;;;;;;41.50;34.00;;;;;15.88;32.30;101466.97;5006983;28;45299;-88
2022/03/02 11:08:53;;;;;;;;;43.75;35.00;;;;;16.84;31.76;101618.69;4987755;28;45367;-88